This is the latest recevied weather packets stored in our database for station/object OE-11150. If no packets are shown the sender has not sent any weather packets the latest 10 day(s).
| Time | Temp. | Humidity | Pressure | Rain* | Wind** | Luminosity | Snow |
|---|---|---|---|---|---|---|---|
| 1787856081 | 24.44° C | 79% | 1011.8 hPa | 0 mm | - | - | - |
| 1787855707 | 24.44° C | 78% | 1011.7 hPa | 0 mm | - | - | - |
| 1787855108 | 24.44° C | 75% | 1011.7 hPa | 0 mm | - | - | - |
| 1787854281 | 25° C | 72% | 1011.5 hPa | 0 mm | - | - | - |
| 1787853908 | 25.56° C | 69% | 1011.2 hPa | 0 mm | - | - | - |
| 1787852720 | 26.11° C | 68% | 1011 hPa | 0 mm | - | - | - |
| 1787852107 | 26.11° C | 71% | 1011 hPa | 0 mm | - | - | - |
| 1787851508 | 27.22° C | 65% | 1010.9 hPa | 0 mm | - | - | - |
| 1787850681 | 27.22° C | 64% | 1010.8 hPa | 0 mm | - | - | - |
| 1787850308 | 27.78° C | 64% | 1011 hPa | 0 mm | - | - | - |
| 1787849708 | 27.78° C | 63% | 1011 hPa | 0 mm | - | - | - |
| 1787848881 | 27.78° C | 61% | 1010.9 hPa | 0 mm | - | - | - |
| 1787848508 | 28.33° C | 59% | 1010.9 hPa | 0 mm | - | - | - |
| 1787847908 | 28.33° C | 57% | 1011.1 hPa | 0 mm | - | - | - |
| 1787847081 | 28.89° C | 59% | 1011 hPa | 0 mm | - | - | - |
| 1787846708 | 28.89° C | 58% | 1011 hPa | 0 mm | - | - | - |
| 1787846108 | 28.33° C | 61% | 1011.1 hPa | 0 mm | - | - | - |
| 1787845280 | 28.33° C | 63% | 1011.2 hPa | 0 mm | - | - | - |
| 1787844908 | 28.33° C | 62% | 1011.2 hPa | 0 mm | - | - | - |
| 1787844308 | 28.89° C | 61% | 1011.2 hPa | 0 mm | - | - | - |
| 1787843481 | 28.89° C | 60% | 1011 hPa | 0 mm | - | - | - |
| 1787843108 | 30° C | 57% | 1011 hPa | 0 mm | - | - | - |
| 1787842508 | 30° C | 56% | 1011 hPa | 0 mm | - | - | - |
| 1787841681 | 30° C | 56% | 1011 hPa | 0 mm | - | - | - |
| 1787841308 | 30° C | 52% | 1011.1 hPa | 0 mm | - | - | - |
* Rain latest hour (hover to see other rain measurements)
** Current wind speed in m/s (hover to see current wind gust speed)